Time;durP1;ratioP1;P1;durP2;ratioP2;P2;SDS_P1;SDS_P2;PMS_P1;PMS_P2;Temp;Humidity;BMP_temperature;BMP_pressure;BME280_temperature;BME280_humidity;BME280_pressure;Samples;Min_cycle;Max_cycle;Signal;HPM_P1;HPM_P2
2022/09/22 00:01:36;;;;;;;10.43;4.10;;;10.60;99.90;;;;;;5092770;28;20486;-81
2022/09/22 00:04:09;;;;;;;8.95;3.63;;;10.60;99.90;;;;;;5093314;28;20035;-81
2022/09/22 00:06:46;;;;;;;11.27;3.83;;;10.60;99.90;;;;;;5074992;28;20043;-81
2022/09/22 00:09:14;;;;;;;8.33;3.20;;;10.50;99.90;;;;;;5092923;28;20036;-81
2022/09/22 00:11:43;;;;;;;8.00;3.47;;;10.50;99.90;;;;;;5093523;28;20388;-81
2022/09/22 00:14:19;;;;;;;7.50;3.17;;;10.50;99.90;;;;;;5093194;28;20031;-81
2022/09/22 00:16:48;;;;;;;7.10;3.47;;;10.50;99.90;;;;;;5074779;28;20039;-81
2022/09/22 00:19:20;;;;;;;9.18;3.60;;;10.50;99.90;;;;;;5092852;28;20226;-81
2022/09/22 00:21:47;;;;;;;8.93;3.80;;;10.50;99.90;;;;;;5092871;28;20035;-81
2022/09/22 00:24:14;;;;;;;9.70;3.60;;;10.40;99.90;;;;;;5092781;28;20024;-81
2022/09/22 00:26:40;;;;;;;11.50;3.37;;;10.50;99.90;;;;;;5074463;28;20484;-81
2022/09/22 00:29:08;;;;;;;6.30;3.20;;;10.40;99.90;;;;;;5092611;28;20103;-81
2022/09/22 00:31:36;;;;;;;7.50;3.10;;;10.40;99.90;;;;;;5092679;28;20404;-81
2022/09/22 00:34:01;;;;;;;5.03;2.53;;;10.40;99.90;;;;;;5092469;28;20035;-81
2022/09/22 00:36:27;;;;;;;6.27;2.50;;;10.30;99.90;;;;;;5092388;28;20024;-81
2022/09/22 00:38:55;;;;;;;8.10;2.43;;;10.30;99.90;;;;;;5092386;28;20108;-81
2022/09/22 00:41:28;;;;;;;5.70;2.33;;;10.30;99.90;;;;;;5092587;28;20032;-81
2022/09/22 00:44:25;;;;;;;7.37;2.50;;;10.30;99.90;;;;;;5092445;28;20036;-81
2022/09/22 00:47:19;;;;;;;5.97;2.23;;;10.30;99.90;;;;;;5092161;28;20115;-81
2022/09/22 00:50:02;;;;;;;5.03;2.20;;;10.10;99.90;;;;;;5092276;28;20028;-81
2022/09/22 00:52:31;;;;;;;6.80;2.20;;;10.10;99.90;;;;;;5092287;28;20032;-81
2022/09/22 00:55:02;;;;;;;6.47;2.30;;;10.10;99.90;;;;;;5092750;28;20036;-81
2022/09/22 00:57:32;;;;;;;5.07;2.20;;;10.10;99.90;;;;;;5092149;28;20489;-81
2022/09/22 00:59:59;;;;;;;5.20;2.20;;;10.00;99.90;;;;;;5091971;28;20138;-81
2022/09/22 01:02:25;;;;;;;9.07;2.40;;;10.00;99.90;;;;;;5092218;28;20032;-81
2022/09/22 01:04:51;;;;;;;7.70;2.30;;;10.00;99.90;;;;;;5092164;28;20480;-81
2022/09/22 01:07:20;;;;;;;6.57;2.60;;;10.00;99.90;;;;;;5091887;28;20495;-81
2022/09/22 01:09:46;;;;;;;5.65;2.42;;;10.00;99.90;;;;;;5091836;28;20032;-81
2022/09/22 01:12:12;;;;;;;5.77;2.23;;;10.00;99.90;;;;;;5072989;28;20032;-81
2022/09/22 01:15:11;;;;;;;6.80;2.37;;;10.00;99.90;;;;;;5057190;28;20036;-81
2022/09/22 01:17:43;;;;;;;5.60;2.40;;;10.00;99.90;;;;;;5073575;28;20051;-81
2022/09/22 01:20:33;;;;;;;7.30;2.50;;;10.00;99.90;;;;;;5073434;28;20088;-81
2022/09/22 01:23:19;;;;;;;7.17;2.90;;;10.00;99.90;;;;;;5073406;28;20538;-81
2022/09/22 01:26:05;;;;;;;5.80;2.63;;;9.90;99.90;;;;;;5091601;28;20115;-81
2022/09/22 01:28:56;;;;;;;6.87;2.67;;;9.90;99.90;;;;;;5090879;28;20044;-81
2022/09/22 01:31:38;;;;;;;4.50;2.20;;;9.90;99.90;;;;;;5091612;28;20058;-81
2022/09/22 01:34:12;;;;;;;6.07;2.30;;;9.90;99.90;;;;;;5091710;28;20032;-82
2022/09/22 01:36:51;;;;;;;5.87;2.40;;;9.90;99.90;;;;;;5091482;28;20031;-81
2022/09/22 01:39:27;;;;;;;6.07;2.00;;;9.90;99.90;;;;;;5091443;28;20525;-81
2022/09/22 01:42:20;;;;;;;6.60;2.00;;;9.90;99.90;;;;;;5091518;28;20028;-81
2022/09/22 01:44:52;;;;;;;3.60;2.00;;;9.80;99.90;;;;;;5091524;28;20035;-81
2022/09/22 01:47:27;;;;;;;6.53;2.43;;;9.80;99.90;;;;;;5091086;28;20062;-81
2022/09/22 01:49:58;;;;;;;7.77;2.13;;;9.80;99.90;;;;;;5091306;28;20370;-81
2022/09/22 01:52:31;;;;;;;5.20;2.07;;;9.80;99.90;;;;;;5091241;28;20039;-81
2022/09/22 01:55:06;;;;;;;5.37;2.30;;;9.70;99.90;;;;;;5073195;28;20024;-81
2022/09/22 01:57:53;;;;;;;5.73;2.27;;;9.70;99.90;;;;;;5091116;28;20544;-81
2022/09/22 02:00:19;;;;;;;4.30;2.00;;;9.70;99.90;;;;;;5073035;28;20047;-81
2022/09/22 02:03:15;;;;;;;5.20;2.00;;;9.70;99.90;;;;;;5091327;28;20028;-82
2022/09/22 02:05:59;;;;;;;4.20;2.03;;;9.70;99.90;;;;;;5091135;28;20032;-81
2022/09/22 02:08:41;;;;;;;7.20;2.63;;;9.60;99.90;;;;;;5073248;28;20032;-81
2022/09/22 02:11:12;;;;;;;7.87;2.33;;;9.60;99.90;;;;;;5091146;28;20435;-81
2022/09/22 02:13:40;;;;;;;6.80;2.40;;;9.60;99.90;;;;;;5073178;28;20495;-81
2022/09/22 02:16:06;;;;;;;9.73;2.30;;;9.60;99.90;;;;;;5090925;28;20024;-81
2022/09/22 02:18:48;;;;;;;8.27;2.53;;;9.50;99.90;;;;;;5090896;28;20032;-81
2022/09/22 02:21:14;;;;;;;4.83;1.90;;;9.50;99.90;;;;;;5072979;28;20028;-81
2022/09/22 02:23:41;;;;;;;4.97;2.20;;;9.50;99.90;;;;;;5056813;28;20458;-81
2022/09/22 02:26:08;;;;;;;4.90;2.23;;;9.50;99.90;;;;;;5095038;28;20031;-81
2022/09/22 02:28:37;;;;;;;6.07;2.33;;;9.50;99.90;;;;;;5094912;28;20035;-81
2022/09/22 02:31:04;;;;;;;;;;;9.50;99.90;;;;;;5095312;28;20670;-81
2022/09/22 02:33:34;;;;;;;7.50;2.60;;;9.50;99.90;;;;;;5095040;28;20376;-81
2022/09/22 02:36:16;;;;;;;4.63;2.63;;;9.50;99.90;;;;;;5076918;28;20039;-81
2022/09/22 02:39:06;;;;;;;4.50;2.30;;;9.40;99.90;;;;;;5076667;28;20503;-81
2022/09/22 02:41:52;;;;;;;8.77;2.20;;;9.40;99.90;;;;;;5095281;28;20028;-81
2022/09/22 02:44:29;;;;;;;12.13;3.57;;;9.40;99.90;;;;;;5094737;28;20111;-81
2022/09/22 02:47:05;;;;;;;7.67;3.10;;;9.40;99.90;;;;;;5095186;28;20024;-81
2022/09/22 02:49:31;;;;;;;6.23;2.60;;;9.40;99.90;;;;;;5094503;28;20036;-81
2022/09/22 02:51:57;;;;;;;5.97;2.10;;;9.30;99.90;;;;;;5076515;28;20564;-81
2022/09/22 02:54:23;;;;;;;5.93;2.63;;;9.40;99.90;;;;;;5094593;28;20027;-80
2022/09/22 02:56:49;;;;;;;6.57;2.30;;;9.30;99.90;;;;;;5076262;28;20095;-81
2022/09/22 02:59:15;;;;;;;5.33;2.20;;;9.40;99.90;;;;;;5094515;28;20020;-81
2022/09/22 03:01:40;;;;;;;4.70;2.30;;;9.30;99.90;;;;;;5095811;28;20122;-81
2022/09/22 03:04:06;;;;;;;9.80;2.40;;;9.30;99.90;;;;;;5094190;28;20020;-81
2022/09/22 03:06:32;;;;;;;6.07;2.53;;;9.30;99.90;;;;;;5094110;28;20050;-81
2022/09/22 03:08:57;;;;;;;7.10;2.70;;;9.30;99.90;;;;;;5094184;28;20085;-81
2022/09/22 03:11:25;;;;;;;5.47;3.07;;;9.20;99.90;;;;;;5094002;28;20024;-81
2022/09/22 03:13:52;;;;;;;5.07;2.83;;;9.30;99.90;;;;;;5075848;28;20426;-81
2022/09/22 03:16:18;;;;;;;6.90;2.70;;;9.30;99.90;;;;;;5093864;28;20043;-81
2022/09/22 03:18:43;;;;;;;9.33;2.87;;;9.30;99.90;;;;;;5075568;28;20365;-81
2022/09/22 03:21:10;;;;;;;6.43;2.50;;;9.20;99.90;;;;;;5075708;28;20031;-81
2022/09/22 03:23:35;;;;;;;5.87;2.50;;;9.20;99.90;;;;;;5099273;22;20068;-80
2022/09/22 03:26:01;;;;;;;7.17;2.60;;;9.20;99.90;;;;;;5073592;28;20507;-80
2022/09/22 03:28:27;;;;;;;7.17;2.60;;;9.20;99.90;;;;;;5055666;28;20167;-80
2022/09/22 03:30:53;;;;;;;6.77;2.87;;;9.20;99.90;;;;;;5055534;28;20028;-80
2022/09/22 03:33:18;;;;;;;7.03;2.73;;;9.20;99.90;;;;;;5073456;28;20377;-80
2022/09/22 03:35:44;;;;;;;8.33;2.67;;;9.30;99.90;;;;;;5072562;28;20028;-81
2022/09/22 03:38:10;;;;;;;5.37;2.60;;;9.20;99.90;;;;;;5073564;28;20472;-81
2022/09/22 03:40:36;;;;;;;7.57;2.20;;;9.20;99.90;;;;;;5073300;28;20028;-80
2022/09/22 03:43:02;;;;;;;8.57;2.90;;;9.20;99.90;;;;;;5073440;28;20032;-80
2022/09/22 03:45:27;;;;;;;8.50;2.90;;;9.10;99.90;;;;;;5073503;28;20043;-80
2022/09/22 03:47:53;;;;;;;5.70;2.90;;;9.20;99.90;;;;;;5055214;28;20032;-80
2022/09/22 03:50:20;;;;;;;8.73;3.13;;;9.10;99.90;;;;;;5073336;28;20029;-80
2022/09/22 03:52:45;;;;;;;7.20;2.80;;;9.10;99.90;;;;;;5073284;28;20028;-80
2022/09/22 03:55:11;;;;;;;5.03;2.30;;;9.20;99.90;;;;;;5073279;28;20385;-80
2022/09/22 03:57:38;;;;;;;6.23;2.80;;;9.10;99.90;;;;;;5073149;28;20477;-80
2022/09/22 04:00:05;;;;;;;10.90;3.50;;;9.10;99.90;;;;;;5072949;28;20438;-80
2022/09/22 04:02:37;;;;;;;7.47;3.00;;;9.10;99.90;;;;;;5056125;28;20044;-80
2022/09/22 04:05:03;;;;;;;5.63;2.63;;;9.10;99.90;;;;;;5055020;28;20028;-80
2022/09/22 04:07:29;;;;;;;10.73;3.50;;;9.10;99.90;;;;;;5072923;28;20040;-80
2022/09/22 04:09:54;;;;;;;6.27;2.57;;;9.10;99.90;;;;;;5072860;28;20472;-80
2022/09/22 04:12:20;;;;;;;6.37;3.03;;;9.10;99.90;;;;;;5073013;28;20303;-80
2022/09/22 04:14:46;;;;;;;5.47;2.63;;;9.00;99.90;;;;;;5072753;28;20090;-80
2022/09/22 04:17:12;;;;;;;8.93;2.80;;;9.10;99.90;;;;;;5072476;28;20048;-80
2022/09/22 04:19:38;;;;;;;6.87;2.70;;;9.00;99.90;;;;;;5072733;28;20032;-80
2022/09/22 04:22:03;;;;;;;12.57;3.47;;;9.00;99.90;;;;;;5072696;28;20040;-80
2022/09/22 04:24:29;;;;;;;9.23;3.60;;;9.00;99.90;;;;;;5072496;28;20131;-80
2022/09/22 04:26:55;;;;;;;10.50;3.20;;;9.00;99.90;;;;;;5072527;28;20089;-80
2022/09/22 04:29:21;;;;;;;8.27;3.03;;;9.00;99.90;;;;;;5072405;28;20074;-80
2022/09/22 04:31:46;;;;;;;6.40;2.77;;;9.00;99.90;;;;;;5072449;28;20029;-80
2022/09/22 04:34:12;;;;;;;8.27;2.90;;;8.90;99.90;;;;;;5054570;28;20440;-80
2022/09/22 04:36:38;;;;;;;7.67;2.50;;;8.90;99.90;;;;;;5072162;28;20025;-80
2022/09/22 04:39:04;;;;;;;8.30;2.70;;;8.90;99.90;;;;;;5072252;28;20028;-80
2022/09/22 04:41:29;;;;;;;6.27;2.93;;;8.90;99.90;;;;;;5072161;28;20028;-80
2022/09/22 04:43:55;;;;;;;5.60;2.40;;;8.90;99.90;;;;;;5072079;28;20029;-80
2022/09/22 04:46:21;;;;;;;6.30;2.70;;;8.90;99.90;;;;;;5072041;28;20028;-80
2022/09/22 04:48:47;;;;;;;6.03;2.47;;;8.90;99.90;;;;;;5054179;28;20028;-80
2022/09/22 04:51:13;;;;;;;8.70;3.17;;;8.90;99.90;;;;;;5071979;28;20037;-80
2022/09/22 04:53:38;;;;;;;6.40;2.57;;;9.00;99.90;;;;;;5071991;28;20045;-80
2022/09/22 04:56:04;;;;;;;6.57;3.00;;;8.90;99.90;;;;;;5071981;28;20036;-80
2022/09/22 04:58:30;;;;;;;6.20;2.40;;;8.90;99.90;;;;;;5071658;28;20032;-80
2022/09/22 05:01:04;;;;;;;6.40;2.77;;;9.00;99.90;;;;;;5071887;28;20028;-80
2022/09/22 05:03:31;;;;;;;9.10;2.27;;;8.90;99.90;;;;;;5054121;28;20555;-80
2022/09/22 05:05:56;;;;;;;8.17;2.50;;;8.90;99.90;;;;;;5071925;28;20040;-80
2022/09/22 05:08:22;;;;;;;8.20;2.80;;;8.90;99.90;;;;;;5071778;28;20503;-80
2022/09/22 05:10:48;;;;;;;8.57;2.50;;;8.90;99.90;;;;;;5071626;28;20031;-80
2022/09/22 05:13:14;;;;;;;7.50;2.80;;;8.90;99.90;;;;;;5053517;28;20099;-80
2022/09/22 05:15:40;;;;;;;7.00;2.80;;;8.90;99.90;;;;;;5071552;28;20025;-80
2022/09/22 05:18:06;;;;;;;8.37;2.80;;;8.90;99.90;;;;;;5071681;28;20021;-80
2022/09/22 05:20:32;;;;;;;9.10;3.50;;;8.90;99.90;;;;;;5071093;28;20082;-80
2022/09/22 05:22:57;;;;;;;7.03;3.33;;;8.80;99.90;;;;;;5053529;28;20033;-80
2022/09/22 05:25:23;;;;;;;6.60;2.93;;;8.80;99.90;;;;;;5071456;28;20063;-80
2022/09/22 05:27:54;;;;;;;9.57;3.03;;;8.80;99.90;;;;;;5071057;28;20507;-80
2022/09/22 05:30:21;;;;;;;7.77;3.00;;;8.80;99.90;;;;;;5071236;28;20039;-80
2022/09/22 05:32:48;;;;;;;7.10;2.77;;;8.80;99.90;;;;;;5071251;28;20884;-80
2022/09/22 05:35:16;;;;;;;6.47;2.77;;;8.80;99.90;;;;;;5071273;28;20047;-80
2022/09/22 05:37:43;;;;;;;6.77;2.83;;;8.80;99.90;;;;;;5071078;28;20025;-80
2022/09/22 05:40:09;;;;;;;8.10;3.67;;;8.70;99.90;;;;;;5053206;28;20366;-79
2022/09/22 05:42:41;;;;;;;5.83;2.77;;;8.80;99.90;;;;;;5071112;28;20032;-79
2022/09/22 05:45:07;;;;;;;8.97;3.17;;;8.80;99.90;;;;;;5071293;28;20078;-80
2022/09/22 05:47:34;;;;;;;7.07;3.07;;;8.80;99.90;;;;;;5070888;28;20033;-80
2022/09/22 05:49:59;;;;;;;9.47;3.67;;;8.80;99.90;;;;;;5070882;28;20033;-80
2022/09/22 05:52:25;;;;;;;10.30;3.57;;;8.80;99.90;;;;;;5053001;28;20043;-80
2022/09/22 05:54:51;;;;;;;8.57;3.10;;;8.80;99.90;;;;;;5052938;28;20121;-80
2022/09/22 05:57:16;;;;;;;9.00;3.50;;;8.80;99.90;;;;;;5052749;28;20025;-80
2022/09/22 05:59:42;;;;;;;10.93;3.77;;;8.80;99.90;;;;;;5070200;28;20435;-80
2022/09/22 06:02:10;;;;;;;7.40;3.47;;;8.90;99.90;;;;;;5052829;28;20033;-80
2022/09/22 06:04:35;;;;;;;9.37;4.13;;;8.90;99.90;;;;;;5052735;28;20163;-80
2022/09/22 06:07:01;;;;;;;7.27;3.57;;;8.90;99.90;;;;;;5035951;28;20537;-80
2022/09/22 06:09:27;;;;;;;11.00;4.07;;;8.90;99.90;;;;;;5070258;28;20040;-79
2022/09/22 06:11:52;;;;;;;10.17;4.10;;;9.00;99.90;;;;;;5070532;28;20090;-80
2022/09/22 06:14:18;;;;;;;8.27;3.63;;;9.00;99.90;;;;;;5070594;28;20130;-80
2022/09/22 06:16:46;;;;;;;8.50;3.70;;;9.10;99.90;;;;;;5070505;28;20108;-80
2022/09/22 06:19:13;;;;;;;7.30;3.57;;;9.00;99.90;;;;;;5052550;28;20488;-80
2022/09/22 06:21:39;;;;;;;9.13;3.83;;;9.10;99.90;;;;;;5070479;28;20416;-79
2022/09/22 06:24:05;;;;;;;7.80;3.63;;;9.10;99.90;;;;;;5070286;28;20033;-80
2022/09/22 06:26:31;;;;;;;8.30;3.57;;;9.10;99.90;;;;;;5070285;28;20029;-80
2022/09/22 06:28:57;;;;;;;9.20;4.03;;;9.20;99.90;;;;;;5070251;28;20389;-79
2022/09/22 06:31:23;;;;;;;8.90;3.83;;;9.30;99.90;;;;;;5052588;28;20032;-80
2022/09/22 06:33:49;;;;;;;8.70;3.83;;;9.30;99.90;;;;;;5070391;28;20473;-80
2022/09/22 06:36:26;;;;;;;8.60;3.20;;;9.40;99.90;;;;;;5070306;28;20025;-79
2022/09/22 06:38:57;;;;;;;7.43;3.27;;;9.40;99.90;;;;;;5070183;28;20028;-80
2022/09/22 06:41:26;;;;;;;11.07;3.03;;;9.50;99.90;;;;;;5070444;28;20028;-80
2022/09/22 06:44:00;;;;;;;8.60;3.13;;;9.50;99.90;;;;;;5052244;28;20034;-79
2022/09/22 06:46:29;;;;;;;6.73;2.73;;;9.60;99.90;;;;;;5070101;28;20032;-80
2022/09/22 06:48:56;;;;;;;9.98;3.00;;;9.60;99.90;;;;;;5052029;28;20070;-80
2022/09/22 06:51:33;;;;;;;8.17;2.80;;;9.70;99.90;;;;;;5035598;28;20036;-80
2022/09/22 06:54:02;;;;;;;7.70;2.80;;;9.80;99.90;;;;;;5035688;28;20090;-80
2022/09/22 06:56:32;;;;;;;6.50;2.90;;;9.80;99.90;;;;;;5070043;28;20033;-80
2022/09/22 06:58:57;;;;;;;5.93;2.85;;;9.90;99.90;;;;;;5070164;28;20060;-80
2022/09/22 07:01:23;;;;;;;6.63;2.87;;;10.00;99.90;;;;;;5052275;28;20154;-80
2022/09/22 07:03:53;;;;;;;8.90;2.63;;;10.00;99.90;;;;;;5070114;28;20460;-80
2022/09/22 07:06:19;;;;;;;6.40;2.60;;;10.10;99.90;;;;;;5070004;28;20055;-80
2022/09/22 07:08:47;;;;;;;7.23;3.27;;;10.10;99.90;;;;;;5070004;28;20031;-80
2022/09/22 07:11:17;;;;;;;7.00;2.57;;;10.20;99.90;;;;;;5071546;28;20032;-80
2022/09/22 07:13:44;;;;;;;5.70;2.57;;;10.20;99.90;;;;;;5055871;28;20043;-80
2022/09/22 07:16:12;;;;;;;8.17;2.77;;;10.30;99.90;;;;;;5073452;28;20028;-80
2022/09/22 07:18:39;;;;;;;6.20;2.50;;;10.40;99.90;;;;;;5073312;28;20115;-80
2022/09/22 07:21:08;;;;;;;5.47;2.50;;;10.40;99.90;;;;;;5073795;28;20052;-80
2022/09/22 07:23:35;;;;;;;5.72;2.30;;;10.50;99.90;;;;;;5055568;28;20079;-80
2022/09/22 07:26:03;;;;;;;6.90;2.30;;;10.50;99.90;;;;;;5055454;28;20440;-80
2022/09/22 07:28:30;;;;;;;7.43;2.60;;;10.50;99.90;;;;;;5073449;28;20056;-80
2022/09/22 07:31:05;;;;;;;7.57;2.67;;;10.60;99.90;;;;;;5055247;28;20386;-80
2022/09/22 07:33:35;;;;;;;3.73;2.03;;;10.60;99.90;;;;;;5039045;28;20630;-81
2022/09/22 07:36:04;;;;;;;6.73;2.60;;;10.70;99.90;;;;;;5055219;28;20024;-80
2022/09/22 07:38:32;;;;;;;;;;;10.80;99.90;;;;;;5055874;28;20043;-80
2022/09/22 07:40:59;;;;;;;6.13;2.20;;;10.90;99.90;;;;;;5055235;28;19999;-80
2022/09/22 07:43:26;;;;;;;8.80;2.67;;;11.00;99.90;;;;;;5055237;28;20021;-80
2022/09/22 07:45:56;;;;;;;5.00;2.27;;;11.00;99.90;;;;;;5038301;28;20029;-81
2022/09/22 07:48:35;;;;;;;6.68;2.28;;;11.10;99.90;;;;;;5073355;28;20032;-80
2022/09/22 07:51:05;;;;;;;6.30;2.60;;;11.10;99.90;;;;;;5073069;28;20029;-80
2022/09/22 07:53:31;;;;;;;5.83;2.47;;;11.20;99.90;;;;;;5054803;28;20041;-80
2022/09/22 07:56:11;;;;;;;6.77;2.50;;;11.30;99.90;;;;;;5054837;28;20077;-80
2022/09/22 07:58:45;;;;;;;5.03;2.03;;;11.30;99.90;;;;;;5072772;28;20060;-80
2022/09/22 08:01:11;;;;;;;4.20;2.13;;;11.30;99.90;;;;;;5055012;28;20078;-80
2022/09/22 08:03:38;;;;;;;6.03;2.20;;;11.40;99.90;;;;;;5054828;28;20029;-80
2022/09/22 08:06:09;;;;;;;4.60;1.87;;;11.50;99.90;;;;;;5072502;28;20115;-80
2022/09/22 08:08:47;;;;;;;3.20;1.70;;;11.50;99.90;;;;;;5072653;28;20024;-80
2022/09/22 08:11:17;;;;;;;8.70;2.53;;;11.50;99.90;;;;;;5072949;28;20040;-80
2022/09/22 08:13:52;;;;;;;4.03;2.00;;;11.60;99.90;;;;;;5072819;28;20051;-80
2022/09/22 08:16:21;;;;;;;4.67;1.93;;;11.60;99.90;;;;;;5072422;28;20032;-80
2022/09/22 08:18:53;;;;;;;4.70;2.78;;;11.70;99.90;;;;;;5054244;28;20048;-80
2022/09/22 08:21:19;;;;;;;4.57;1.80;;;11.80;99.90;;;;;;5054136;28;20116;-80
2022/09/22 08:23:45;;;;;;;5.67;2.00;;;11.80;99.90;;;;;;5037717;28;20481;-80
2022/09/22 08:26:14;;;;;;;4.40;2.13;;;11.90;99.90;;;;;;5072259;28;20029;-81
2022/09/22 08:28:39;;;;;;;4.57;2.20;;;11.90;99.90;;;;;;5054273;28;20028;-81
2022/09/22 08:31:10;;;;;;;4.37;2.37;;;12.00;99.90;;;;;;5072066;28;20119;-80
2022/09/22 08:33:38;;;;;;;4.60;2.47;;;12.00;99.90;;;;;;5072342;28;20036;-80
2022/09/22 08:36:04;;;;;;;3.97;2.27;;;12.00;99.90;;;;;;5037381;28;20036;-81
2022/09/22 08:38:32;;;;;;;5.10;2.07;;;12.00;99.90;;;;;;5071914;28;20543;-81
2022/09/22 08:41:23;;;;;;;7.87;3.70;;;12.10;99.90;;;;;;5037682;28;20020;-80
2022/09/22 08:43:55;;;;;;;5.90;3.10;;;12.10;99.90;;;;;;5031194;28;20397;-80
2022/09/22 08:46:28;;;;;;;6.93;3.20;;;12.10;99.90;;;;;;5071746;28;20033;-80
2022/09/22 08:52:26;;;;;;;6.33;3.37;;;12.20;99.90;;;;;;5053793;28;20068;-80
2022/09/22 08:54:58;;;;;;;7.17;2.90;;;12.30;99.90;;;;;;5071813;28;20035;-80
2022/09/22 08:57:44;;;;;;;5.13;2.10;;;12.20;99.90;;;;;;5071695;28;20028;-80
2022/09/22 09:00:17;;;;;;;5.28;2.03;;;12.30;99.90;;;;;;5070995;28;20115;-80
2022/09/22 09:03:22;;;;;;;4.65;1.73;;;12.30;99.90;;;;;;5071720;28;20024;-80
2022/09/22 09:06:15;;;;;;;2.78;1.60;;;12.30;99.90;;;;;;5071412;28;20028;-80
2022/09/22 09:08:55;;;;;;;3.50;1.17;;;12.30;99.90;;;;;;5071277;28;20112;-81
2022/09/22 09:11:36;;;;;;;1.92;1.20;;;12.30;99.90;;;;;;5036900;28;20032;-80
2022/09/22 09:14:08;;;;;;;3.88;1.55;;;12.30;99.90;;;;;;5071456;28;20481;-80
2022/09/22 09:16:52;;;;;;;3.95;1.98;;;12.40;99.90;;;;;;5053397;28;20034;-81
2022/09/22 09:19:26;;;;;;;2.90;1.52;;;12.50;99.90;;;;;;5053443;28;20029;-80
2022/09/22 09:21:56;;;;;;;4.65;1.50;;;12.60;99.90;;;;;;5053316;28;20039;-80
2022/09/22 09:24:45;;;;;;;3.88;1.60;;;12.60;99.90;;;;;;5085494;22;20040;-82
2022/09/22 09:27:20;;;;;;;3.45;1.90;;;12.60;99.90;;;;;;5053143;28;20082;-82
2022/09/22 09:30:05;;;;;;;3.92;1.80;;;12.60;99.90;;;;;;5070500;28;20040;-81
2022/09/22 09:32:47;;;;;;;4.35;1.90;;;12.60;99.90;;;;;;5053000;28;20486;-81
2022/09/22 09:35:17;;;;;;;3.70;1.88;;;12.60;99.90;;;;;;5050597;28;20029;-81
2022/09/22 09:37:47;;;;;;;3.35;1.60;;;12.60;99.90;;;;;;5050813;28;20039;-81
2022/09/22 09:40:17;;;;;;;3.13;1.50;;;12.60;99.90;;;;;;5049356;28;20119;-81
2022/09/22 09:42:46;;;;;;;3.70;1.70;;;12.60;99.90;;;;;;5033324;28;20033;-81
2022/09/22 09:45:16;;;;;;;5.18;2.03;;;12.70;99.90;;;;;;5050840;28;20036;-81
2022/09/22 09:48:09;;;;;;;4.40;2.00;;;12.70;99.90;;;;;;5050644;28;20044;-81
2022/09/22 09:50:36;;;;;;;4.45;1.70;;;12.80;99.90;;;;;;5051093;28;20236;-81
2022/09/22 09:53:02;;;;;;;4.47;2.03;;;12.80;99.90;;;;;;5050677;28;20029;-81
2022/09/22 09:55:30;;;;;;;4.95;1.90;;;12.90;99.90;;;;;;5050824;28;20044;-81
2022/09/22 09:58:05;;;;;;;3.25;1.60;;;12.90;99.90;;;;;;5050840;28;20037;-81
2022/09/22 10:00:32;;;;;;;5.05;2.08;;;13.00;99.90;;;;;;5032624;28;20029;-81
2022/09/22 10:03:09;;;;;;;4.78;2.38;;;13.10;99.90;;;;;;5050401;28;20055;-81
2022/09/22 10:05:36;;;;;;;5.82;2.38;;;13.20;99.90;;;;;;5032921;28;20041;-81
2022/09/22 10:08:20;;;;;;;7.65;4.10;;;13.20;99.90;;;;;;5050636;28;20028;-81
2022/09/22 10:10:46;;;;;;;5.88;2.60;;;13.30;99.90;;;;;;5050353;28;20033;-81
2022/09/22 10:13:13;;;;;;;6.00;2.63;;;13.30;99.90;;;;;;5050398;28;20025;-81
2022/09/22 10:15:41;;;;;;;5.82;2.25;;;13.30;99.90;;;;;;5050402;28;20036;-81
2022/09/22 10:18:25;;;;;;;4.63;1.92;;;13.30;99.90;;;;;;5032875;28;20029;-81
2022/09/22 10:21:21;;;;;;;3.08;1.63;;;13.30;99.90;;;;;;5032403;28;20100;-81
2022/09/22 10:23:55;;;;;;;3.03;1.60;;;13.30;99.90;;;;;;5048951;28;20048;-81
2022/09/22 10:26:30;;;;;;;4.15;1.67;;;13.20;99.90;;;;;;5050456;28;20060;-81
2022/09/22 10:29:05;;;;;;;2.63;1.23;;;13.30;99.90;;;;;;5050401;28;20354;-80
2022/09/22 10:31:31;;;;;;;4.00;1.42;;;13.40;99.80;;;;;;5049150;28;20029;-80
2022/09/22 10:33:59;;;;;;;3.97;1.33;;;13.40;99.60;;;;;;5048893;28;20370;-81
2022/09/22 10:36:27;;;;;;;4.05;1.65;;;13.50;98.50;;;;;;5050149;28;20029;-80
2022/09/22 10:38:54;;;;;;;5.03;1.45;;;13.60;98.40;;;;;;5050188;28;20036;-80
2022/09/22 10:41:26;;;;;;;3.13;1.52;;;13.60;98.50;;;;;;5050402;28;20041;-81
2022/09/22 10:44:00;;;;;;;2.80;1.30;;;13.80;98.00;;;;;;5050270;28;20036;-81
2022/09/22 10:46:56;;;;;;;3.45;1.40;;;13.80;97.60;;;;;;5053628;28;20074;-80
2022/09/22 10:50:07;;;;;;;4.28;1.80;;;13.70;97.60;;;;;;5053844;28;20036;-80
2022/09/22 10:52:44;;;;;;;5.43;2.50;;;13.70;97.70;;;;;;5054027;28;20036;-81
2022/09/22 10:55:33;;;;;;;4.47;2.40;;;13.70;97.50;;;;;;5053914;28;20033;-81
2022/09/22 10:58:07;;;;;;;4.82;2.22;;;13.90;96.40;;;;;;5053855;28;20095;-81
2022/09/22 11:00:35;;;;;;;5.57;2.10;;;13.90;96.30;;;;;;5053777;28;20033;-81
2022/09/22 11:03:06;;;;;;;3.85;2.00;;;14.00;96.10;;;;;;5053728;28;20044;-81
2022/09/22 11:12:19;;;;;;;5.93;2.33;;;14.20;96.20;;;;;;5053556;28;20055;-81
2022/09/22 11:15:15;;;;;;;4.65;2.03;;;14.30;96.10;;;;;;5053590;28;20112;-81
2022/09/22 11:18:11;;;;;;;2.92;1.40;;;14.30;95.80;;;;;;5053598;28;20032;-80
2022/09/22 11:20:51;;;;;;;4.55;1.45;;;14.40;95.60;;;;;;5053565;28;20051;-80
2022/09/22 11:23:55;;;;;;;3.55;1.70;;;14.40;95.30;;;;;;5053287;28;20033;-81
2022/09/22 11:26:48;;;;;;;4.72;1.65;;;14.50;95.30;;;;;;5053220;28;20036;-81
2022/09/22 11:29:40;;;;;;;6.22;2.33;;;14.50;94.90;;;;;;5053363;28;20037;-80
2022/09/22 11:32:24;;;;;;;7.22;2.17;;;14.60;95.00;;;;;;5053564;28;20405;-80
2022/09/22 11:35:05;;;;;;;6.63;1.42;;;14.60;95.00;;;;;;5053764;28;20650;-80
2022/09/22 11:37:49;;;;;;;5.15;2.13;;;14.70;94.60;;;;;;5053376;28;20029;-81
2022/09/22 11:40:48;;;;;;;4.90;2.15;;;14.70;94.70;;;;;;5052078;28;20075;-80
2022/09/22 11:43:28;;;;;;;3.33;1.25;;;14.70;94.40;;;;;;5053121;28;20033;-80
2022/09/22 11:46:05;;;;;;;3.75;1.80;;;14.70;94.10;;;;;;5053196;28;20033;-81
2022/09/22 11:49:03;;;;;;;5.28;1.55;;;14.90;93.80;;;;;;5052958;28;20375;-80
2022/09/22 11:51:50;;;;;;;3.55;1.48;;;14.80;93.90;;;;;;5053087;28;20029;-81
2022/09/22 11:54:26;;;;;;;2.22;1.10;;;14.70;94.20;;;;;;5052943;28;20044;-80
2022/09/22 11:56:59;;;;;;;2.55;1.23;;;14.70;94.00;;;;;;5052092;28;20021;-81
2022/09/22 11:59:42;;;;;;;3.15;1.30;;;14.70;94.40;;;;;;5052647;28;20029;-81
2022/09/22 12:02:48;;;;;;;3.38;1.30;;;14.60;95.40;;;;;;5051592;28;20037;-81
2022/09/22 12:05:49;;;;;;;2.30;1.40;;;14.60;94.70;;;;;;5022079;28;20494;-80
2022/09/22 12:08:24;;;;;;;2.50;1.10;;;14.60;93.90;;;;;;5052204;28;20131;-81
2022/09/22 12:10:51;;;;;;;4.00;2.08;;;14.70;93.40;;;;;;5052293;28;20440;-81
2022/09/22 12:13:29;;;;;;;6.03;2.65;;;14.70;93.20;;;;;;5052439;28;20052;-81
2022/09/22 12:16:11;;;;;;;3.80;1.80;;;14.80;93.40;;;;;;5052384;28;20061;-81
2022/09/22 12:19:15;;;;;;;3.35;1.90;;;14.90;92.20;;;;;;5050881;28;20401;-80
2022/09/22 12:21:49;;;;;;;2.83;1.40;;;14.90;92.40;;;;;;5041318;28;20037;-81
2022/09/22 12:24:15;;;;;;;1.98;1.05;;;14.80;92.10;;;;;;5052152;28;20108;-80
2022/09/22 12:26:43;;;;;;;2.80;1.45;;;14.90;91.70;;;;;;5052102;28;20591;-80
2022/09/22 12:29:15;;;;;;;4.55;1.63;;;14.90;91.80;;;;;;5052029;28;20040;-81
2022/09/22 12:31:43;;;;;;;4.10;2.10;;;14.90;92.10;;;;;;5052028;28;20102;-80
2022/09/22 12:34:38;;;;;;;2.60;1.40;;;15.00;92.20;;;;;;5052228;28;20036;-80
2022/09/22 12:37:30;;;;;;;7.18;3.45;;;15.00;91.40;;;;;;5051799;28;20037;-80
2022/09/22 12:40:17;;;;;;;4.70;2.40;;;15.20;90.50;;;;;;5051783;28;20409;-80
2022/09/22 12:42:48;;;;;;;5.20;1.83;;;15.20;90.70;;;;;;5052139;28;20033;-80
2022/09/22 12:45:39;;;;;;;5.10;2.35;;;15.20;90.70;;;;;;5052033;28;20033;-80
2022/09/22 12:48:15;;;;;;;2.67;1.20;;;15.20;90.80;;;;;;5050882;28;20458;-80
2022/09/22 12:50:43;;;;;;;2.30;1.35;;;15.30;90.10;;;;;;5051798;28;20158;-80
2022/09/22 12:53:23;;;;;;;2.05;1.00;;;15.30;90.20;;;;;;5033711;28;20025;-81
2022/09/22 12:55:50;;;;;;;3.08;1.20;;;15.50;89.50;;;;;;5051570;28;20025;-81
2022/09/22 12:58:22;;;;;;;3.08;1.40;;;15.50;90.20;;;;;;5033734;28;20402;-81
2022/09/22 13:00:49;;;;;;;2.00;1.20;;;15.50;92.30;;;;;;5051346;28;20029;-81
2022/09/22 13:03:24;;;;;;;1.77;1.15;;;15.30;93.00;;;;;;5051704;28;20458;-81
2022/09/22 13:05:57;;;;;;;1.73;1.10;;;15.20;91.70;;;;;;5051568;28;20280;-81
2022/09/22 13:08:44;;;;;;;2.28;0.93;;;15.20;91.20;;;;;;5050603;28;20109;-81
2022/09/22 13:11:10;;;;;;;2.30;0.90;;;15.10;92.20;;;;;;5051352;28;20078;-81
2022/09/22 13:13:41;;;;;;;2.38;1.15;;;15.00;92.50;;;;;;5051447;28;20060;-81
2022/09/22 13:16:12;;;;;;;4.72;1.60;;;15.10;90.30;;;;;;5051144;28;20107;-81
2022/09/22 13:18:57;;;;;;;2.13;1.10;;;15.20;88.40;;;;;;5050944;28;20036;-81
2022/09/22 13:21:28;;;;;;;1.85;1.20;;;15.30;88.70;;;;;;5033662;28;20432;-81
2022/09/22 13:24:01;;;;;;;2.78;0.90;;;15.40;88.00;;;;;;5033403;28;20029;-81
2022/09/22 13:26:31;;;;;;;4.25;1.17;;;15.50;87.10;;;;;;5049764;28;20029;-81
2022/09/22 13:29:02;;;;;;;3.28;1.50;;;15.60;87.10;;;;;;5050903;28;20116;-81